Time,TemperatureF,DewpointF,PressureIn,WindDirection,WindDirectionDegrees,WindSpeedMPH,WindSpeedGustMPH,Humidity,HourlyPrecipIn,Conditions,Clouds,dailyrainin,SolarRadiationWatts/m^2,SoftwareType,DateUTC
2013-03-12 00:02:00,41.0,16.0,-100.00,NNW,343,2.0,3.0,36,-99.99,,,0.00,0.120000,,2013-03-12 07:02:00,
2013-03-12 00:12:00,41.0,16.0,-100.00,NNW,343,2.0,3.0,36,-99.99,,,0.00,0.120000,,2013-03-12 07:12:00,
2013-03-12 00:42:00,36.0,16.0,-100.00,SSW,196,1.0,3.0,42,-99.99,,,0.00,0.120000,,2013-03-12 07:42:00,
2013-03-12 00:52:00,36.0,16.0,-100.00,SSW,196,1.0,3.0,42,-99.99,,,0.00,0.120000,,2013-03-12 07:52:00,
2013-03-12 01:02:00,36.0,16.0,-100.00,SSW,196,1.0,3.0,42,-99.99,,,0.00,0.120000,,2013-03-12 08:02:00,
2013-03-12 01:12:00,36.0,16.0,-100.00,SSW,196,1.0,3.0,42,-99.99,,,0.00,0.120000,,2013-03-12 08:12:00,
2013-03-12 01:42:00,35.0,16.0,-100.00,NE,51,2.0,4.0,45,-99.99,,,0.00,0.120000,,2013-03-12 08:42:00,
2013-03-12 01:52:00,35.0,16.0,-100.00,NE,51,2.0,4.0,45,-99.99,,,0.00,0.120000,,2013-03-12 08:52:00,
2013-03-12 02:02:00,35.0,16.0,-100.00,NE,51,2.0,4.0,45,-99.99,,,0.00,0.120000,,2013-03-12 09:02:00,
2013-03-12 02:11:00,35.0,16.0,-100.00,NE,51,2.0,4.0,45,-99.99,,,0.00,0.120000,,2013-03-12 09:11:00,
2013-03-12 02:42:00,35.0,16.0,-100.00,NNE,24,0.0,1.0,45,-99.99,,,0.00,0.000000,,2013-03-12 09:42:00,
2013-03-12 02:52:00,35.0,16.0,-100.00,NNE,24,0.0,1.0,45,-99.99,,,0.00,0.000000,,2013-03-12 09:52:00,
2013-03-12 03:02:00,35.0,16.0,-100.00,NNE,24,0.0,1.0,45,-99.99,,,0.00,0.000000,,2013-03-12 10:02:00,
2013-03-12 03:12:00,35.0,16.0,-100.00,NNE,24,0.0,1.0,45,-99.99,,,0.00,0.000000,,2013-03-12 10:12:00,
2013-03-12 03:42:00,32.0,16.0,-100.00,NNE,26,1.0,2.0,51,-99.99,,,0.00,0.000000,,2013-03-12 10:42:00,
2013-03-12 03:52:00,32.0,16.0,-100.00,NNE,26,1.0,2.0,51,-99.99,,,0.00,0.000000,,2013-03-12 10:52:00,
2013-03-12 04:02:00,32.0,16.0,-100.00,NNE,26,1.0,2.0,51,-99.99,,,0.00,0.000000,,2013-03-12 11:02:00,
2013-03-12 04:12:00,32.0,16.0,-100.00,NNE,26,1.0,2.0,51,-99.99,,,0.00,0.000000,,2013-03-12 11:12:00,
2013-03-12 04:42:00,29.0,15.0,-100.00,SSW,200,1.0,2.0,54,-99.99,,,0.00,0.000000,,2013-03-12 11:42:00,
2013-03-12 04:52:00,29.0,15.0,-100.00,SSW,200,1.0,2.0,54,-99.99,,,0.00,0.000000,,2013-03-12 11:52:00,
2013-03-12 05:02:00,29.0,15.0,-100.00,SSW,200,1.0,2.0,54,-99.99,,,0.00,0.000000,,2013-03-12 12:02:00,
2013-03-12 05:12:00,29.0,15.0,-100.00,SSW,200,1.0,2.0,54,-99.99,,,0.00,0.000000,,2013-03-12 12:12:00,
2013-03-12 05:42:00,29.0,14.0,-100.00,SSW,200,0.0,2.0,52,-99.99,,,0.00,0.000000,,2013-03-12 12:42:00,
2013-03-12 05:52:00,29.0,14.0,-100.00,SSW,200,0.0,2.0,52,-99.99,,,0.00,0.000000,,2013-03-12 12:52:00,
2013-03-12 06:02:00,29.0,14.0,-100.00,SSW,200,0.0,2.0,52,-99.99,,,0.00,0.000000,,2013-03-12 13:02:00,
2013-03-12 06:12:00,29.0,14.0,-100.00,SSW,200,0.0,2.0,52,-99.99,,,0.00,0.000000,,2013-03-12 13:12:00,
2013-03-12 06:42:00,26.0,14.0,-100.00,South,183,2.0,3.0,58,-99.99,,,0.00,0.000000,,2013-03-12 13:42:00,
2013-03-12 06:52:00,26.0,14.0,-100.00,South,183,2.0,3.0,58,-99.99,,,0.00,0.000000,,2013-03-12 13:52:00,
2013-03-12 07:02:00,26.0,14.0,-100.00,South,183,2.0,3.0,58,-99.99,,,0.00,0.000000,,2013-03-12 14:02:00,
2013-03-12 07:12:00,26.0,14.0,-100.00,South,183,2.0,3.0,58,-99.99,,,0.00,0.000000,,2013-03-12 14:12:00,
2013-03-12 07:42:00,28.0,14.0,-100.00,SW,215,0.0,1.0,54,-99.99,,,0.00,4.180000,,2013-03-12 14:42:00,
2013-03-12 07:53:00,28.0,14.0,-100.00,SW,215,0.0,1.0,54,-99.99,,,0.00,4.180000,,2013-03-12 14:53:00,
2013-03-12 08:02:00,28.0,14.0,-100.00,SW,215,0.0,1.0,54,-99.99,,,0.00,4.180000,,2013-03-12 15:02:00,
2013-03-12 08:12:00,28.0,14.0,-100.00,SW,215,0.0,1.0,54,-99.99,,,0.00,4.180000,,2013-03-12 15:12:00,
2013-03-12 08:42:00,38.0,18.0,-100.00,North,0,0.0,0.0,45,-99.99,,,0.00,169.220001,,2013-03-12 15:42:00,
2013-03-12 08:53:00,38.0,18.0,-100.00,North,0,0.0,0.0,45,-99.99,,,0.00,169.220001,,2013-03-12 15:53:00,
2013-03-12 09:02:00,38.0,18.0,-100.00,North,0,0.0,0.0,45,-99.99,,,0.00,169.220001,,2013-03-12 16:02:00,
2013-03-12 09:12:00,38.0,18.0,-100.00,North,0,0.0,0.0,45,-99.99,,,0.00,169.220001,,2013-03-12 16:12:00,
2013-03-12 09:42:00,45.0,17.0,-100.00,ESE,118,2.0,3.0,32,-99.99,,,0.00,266.720001,,2013-03-12 16:42:00,
2013-03-12 09:53:00,45.0,17.0,-100.00,ESE,118,2.0,3.0,32,-99.99,,,0.00,266.720001,,2013-03-12 16:53:00,
2013-03-12 10:02:00,45.0,17.0,-100.00,ESE,118,2.0,3.0,32,-99.99,,,0.00,266.720001,,2013-03-12 17:02:00,
2013-03-12 10:12:00,45.0,17.0,-100.00,ESE,118,2.0,3.0,32,-99.99,,,0.00,266.720001,,2013-03-12 17:12:00,
2013-03-12 10:43:00,52.0,17.0,-100.00,West,266,1.0,3.0,24,-99.99,,,0.00,559.599976,,2013-03-12 17:43:00,
2013-03-12 10:53:00,52.0,17.0,-100.00,West,266,1.0,3.0,24,-99.99,,,0.00,559.599976,,2013-03-12 17:53:00,
2013-03-12 11:02:00,52.0,17.0,-100.00,West,266,1.0,3.0,24,-99.99,,,0.00,559.599976,,2013-03-12 18:02:00,
2013-03-12 11:12:00,52.0,17.0,-100.00,West,266,1.0,3.0,24,-99.99,,,0.00,559.599976,,2013-03-12 18:12:00,
2013-03-12 11:42:00,59.0,19.0,-100.00,SE,140,2.0,9.0,21,-99.99,,,0.00,662.919983,,2013-03-12 18:42:00,
2013-03-12 11:53:00,59.0,19.0,-100.00,SE,140,2.0,9.0,21,-99.99,,,0.00,662.919983,,2013-03-12 18:53:00,
2013-03-12 12:03:00,59.0,19.0,-100.00,SE,140,2.0,9.0,21,-99.99,,,0.00,662.919983,,2013-03-12 19:03:00,
2013-03-12 12:12:00,59.0,19.0,-100.00,SE,140,2.0,9.0,21,-99.99,,,0.00,662.919983,,2013-03-12 19:12:00,
2013-03-12 12:43:00,62.0,21.0,-100.00,SSE,155,3.0,8.0,20,-99.99,,,0.00,790.409973,,2013-03-12 19:43:00,
2013-03-12 12:53:00,62.0,21.0,-100.00,SSE,155,3.0,8.0,20,-99.99,,,0.00,790.409973,,2013-03-12 19:53:00,
2013-03-12 13:02:00,62.0,21.0,-100.00,SSE,155,3.0,8.0,20,-99.99,,,0.00,790.409973,,2013-03-12 20:02:00,
2013-03-12 13:11:00,62.0,21.0,-100.00,SSE,155,3.0,8.0,20,-99.99,,,0.00,790.409973,,2013-03-12 20:11:00,
2013-03-12 13:32:00,64.0,20.0,-100.00,ESE,106,4.0,10.0,18,-99.99,,,0.00,800.520020,,2013-03-12 20:32:00,
2013-03-12 13:42:00,64.0,20.0,-100.00,ESE,106,4.0,10.0,18,-99.99,,,0.00,800.520020,,2013-03-12 20:42:00,
2013-03-12 13:53:00,64.0,20.0,-100.00,ESE,106,4.0,10.0,18,-99.99,,,0.00,800.520020,,2013-03-12 20:53:00,
2013-03-12 14:02:00,64.0,20.0,-100.00,ESE,106,4.0,10.0,18,-99.99,,,0.00,800.520020,,2013-03-12 21:02:00,
2013-03-12 14:12:00,64.0,20.0,-100.00,ESE,106,4.0,10.0,18,-99.99,,,0.00,800.520020,,2013-03-12 21:12:00,
2013-03-12 14:42:00,67.0,20.0,-100.00,SE,128,3.0,9.0,16,-99.99,,,0.00,777.400024,,2013-03-12 21:42:00,
2013-03-12 14:52:00,67.0,20.0,-100.00,SE,128,3.0,9.0,16,-99.99,,,0.00,777.400024,,2013-03-12 21:52:00,
2013-03-12 15:02:00,67.0,20.0,-100.00,SE,128,3.0,9.0,16,-99.99,,,0.00,777.400024,,2013-03-12 22:02:00,
2013-03-12 15:12:00,67.0,20.0,-100.00,SE,128,3.0,9.0,16,-99.99,,,0.00,777.400024,,2013-03-12 22:12:00,
2013-03-12 15:32:00,69.0,20.0,-100.00,ENE,78,2.0,7.0,15,-99.99,,,0.00,654.900024,,2013-03-12 22:32:00,
2013-03-12 15:42:00,69.0,20.0,-100.00,ENE,78,2.0,7.0,15,-99.99,,,0.00,654.900024,,2013-03-12 22:42:00,
2013-03-12 15:53:00,69.0,20.0,-100.00,ENE,78,2.0,7.0,15,-99.99,,,0.00,654.900024,,2013-03-12 22:53:00,
2013-03-12 16:02:00,69.0,20.0,-100.00,ENE,78,2.0,7.0,15,-99.99,,,0.00,654.900024,,2013-03-12 23:02:00,
2013-03-12 16:12:00,69.0,20.0,-100.00,ENE,78,2.0,7.0,15,-99.99,,,0.00,654.900024,,2013-03-12 23:12:00,
2013-03-12 16:34:00,69.0,21.0,-100.00,WNW,287,2.0,5.0,15,-99.99,,,0.00,606.900024,,2013-03-12 23:34:00,
2013-03-12 16:43:00,70.0,20.0,-100.00,SE,136,3.0,7.0,14,-99.99,,,0.00,554.020020,,2013-03-12 23:43:00,
2013-03-12 16:52:00,70.0,20.0,-100.00,SE,136,3.0,7.0,14,-99.99,,,0.00,554.020020,,2013-03-12 23:52:00,
2013-03-12 17:02:00,70.0,20.0,-100.00,SE,136,3.0,7.0,14,-99.99,,,0.00,554.020020,,2013-03-13 00:02:00,
2013-03-12 17:12:00,70.0,20.0,-100.00,SE,136,3.0,7.0,14,-99.99,,,0.00,554.020020,,2013-03-13 00:12:00,
2013-03-12 17:33:00,70.0,20.0,-100.00,WNW,293,3.0,6.0,15,-99.99,,,0.00,308.220001,,2013-03-13 00:33:00,
2013-03-12 17:42:00,70.0,20.0,-100.00,WNW,293,3.0,6.0,15,-99.99,,,0.00,308.220001,,2013-03-13 00:42:00,
2013-03-12 17:53:00,70.0,20.0,-100.00,WNW,293,3.0,6.0,15,-99.99,,,0.00,308.220001,,2013-03-13 00:53:00,
2013-03-12 18:02:00,70.0,20.0,-100.00,WNW,293,3.0,6.0,15,-99.99,,,0.00,308.220001,,2013-03-13 01:02:00,
2013-03-12 18:12:00,70.0,20.0,-100.00,WNW,293,3.0,6.0,15,-99.99,,,0.00,308.220001,,2013-03-13 01:12:00,
2013-03-12 18:42:00,68.0,22.0,-100.00,WSW,254,1.0,2.0,17,-99.99,,,0.00,117.849998,,2013-03-13 01:42:00,
2013-03-12 18:52:00,68.0,22.0,-100.00,WSW,254,1.0,2.0,17,-99.99,,,0.00,117.849998,,2013-03-13 01:52:00,
2013-03-12 19:02:00,68.0,22.0,-100.00,WSW,254,1.0,2.0,17,-99.99,,,0.00,117.849998,,2013-03-13 02:02:00,
2013-03-12 19:12:00,68.0,22.0,-100.00,WSW,254,1.0,2.0,17,-99.99,,,0.00,117.849998,,2013-03-13 02:12:00,
2013-03-12 19:42:00,61.0,20.0,-100.00,North,0,0.0,0.0,20,-99.99,,,0.00,0.810000,,2013-03-13 02:42:00,
2013-03-12 19:52:00,61.0,20.0,-100.00,North,0,0.0,0.0,20,-99.99,,,0.00,0.810000,,2013-03-13 02:52:00,
2013-03-12 20:02:00,61.0,20.0,-100.00,North,0,0.0,0.0,20,-99.99,,,0.00,0.810000,,2013-03-13 03:02:00,
2013-03-12 20:12:00,61.0,20.0,-100.00,North,0,0.0,0.0,20,-99.99,,,0.00,0.810000,,2013-03-13 03:12:00,
2013-03-12 20:42:00,53.0,22.0,-100.00,NE,39,0.0,2.0,28,-99.99,,,0.00,0.000000,,2013-03-13 03:42:00,
2013-03-12 20:52:00,53.0,22.0,-100.00,NE,39,0.0,2.0,28,-99.99,,,0.00,0.000000,,2013-03-13 03:52:00,
2013-03-12 21:02:00,53.0,22.0,-100.00,NE,39,0.0,2.0,28,-99.99,,,0.00,0.000000,,2013-03-13 04:02:00,
2013-03-12 21:12:00,53.0,22.0,-100.00,NE,39,0.0,2.0,28,-99.99,,,0.00,0.000000,,2013-03-13 04:12:00,
2013-03-12 21:32:00,51.0,21.0,-100.00,ENE,60,1.0,2.0,29,-99.99,,,0.00,0.000000,,2013-03-13 04:32:00,
2013-03-12 21:42:00,51.0,21.0,-100.00,ENE,60,1.0,2.0,29,-99.99,,,0.00,0.000000,,2013-03-13 04:42:00,
2013-03-12 21:53:00,51.0,21.0,-100.00,ENE,60,1.0,2.0,29,-99.99,,,0.00,0.000000,,2013-03-13 04:53:00,
2013-03-12 22:02:00,51.0,21.0,-100.00,ENE,60,1.0,2.0,29,-99.99,,,0.00,0.000000,,2013-03-13 05:02:00,
2013-03-12 22:12:00,51.0,21.0,-100.00,ENE,60,1.0,2.0,29,-99.99,,,0.00,0.000000,,2013-03-13 05:12:00,
2013-03-12 22:42:00,45.0,22.0,-100.00,SW,224,3.0,5.0,39,-99.99,,,0.00,0.000000,,2013-03-13 05:42:00,
2013-03-12 22:52:00,45.0,22.0,-100.00,SW,224,3.0,5.0,39,-99.99,,,0.00,0.000000,,2013-03-13 05:52:00,
2013-03-12 23:02:00,45.0,22.0,-100.00,SW,224,3.0,5.0,39,-99.99,,,0.00,0.000000,,2013-03-13 06:02:00,
2013-03-12 23:12:00,45.0,22.0,-100.00,SW,224,3.0,5.0,39,-99.99,,,0.00,0.000000,,2013-03-13 06:12:00,
2013-03-12 23:42:00,45.0,22.0,-100.00,West,274,1.0,2.0,39,-99.99,,,0.00,0.000000,,2013-03-13 06:42:00,
2013-03-12 23:52:00,45.0,22.0,-100.00,West,274,1.0,2.0,39,-99.99,,,0.00,0.000000,,2013-03-13 06:52:00,